sensor_id;sensor_type;location;lat;lon;timestamp;P1;durP1;ratioP1;P2;durP2;ratioP2
4486;SDS011;2256;48.740;9.106;2023-01-13T00:02:26;3.43;;;0.90;;
4486;SDS011;2256;48.740;9.106;2023-01-13T00:04:53;2.70;;;1.00;;
4486;SDS011;2256;48.740;9.106;2023-01-13T00:07:20;2.90;;;1.10;;
4486;SDS011;2256;48.740;9.106;2023-01-13T00:09:47;3.50;;;0.97;;
4486;SDS011;2256;48.740;9.106;2023-01-13T00:12:14;2.93;;;1.10;;
4486;SDS011;2256;48.740;9.106;2023-01-13T00:14:42;5.50;;;1.20;;
4486;SDS011;2256;48.740;9.106;2023-01-13T00:17:08;9.87;;;1.30;;
4486;SDS011;2256;48.740;9.106;2023-01-13T00:19:35;4.63;;;1.10;;
4486;SDS011;2256;48.740;9.106;2023-01-13T00:22:02;7.93;;;1.20;;
4486;SDS011;2256;48.740;9.106;2023-01-13T00:24:29;2.60;;;1.00;;
4486;SDS011;2256;48.740;9.106;2023-01-13T00:26:55;4.93;;;1.10;;
4486;SDS011;2256;48.740;9.106;2023-01-13T00:29:22;2.47;;;1.13;;
4486;SDS011;2256;48.740;9.106;2023-01-13T00:31:50;11.67;;;1.40;;
4486;SDS011;2256;48.740;9.106;2023-01-13T00:34:17;12.83;;;1.33;;
4486;SDS011;2256;48.740;9.106;2023-01-13T00:36:44;4.37;;;0.93;;
4486;SDS011;2256;48.740;9.106;2023-01-13T00:39:11;4.10;;;1.30;;
4486;SDS011;2256;48.740;9.106;2023-01-13T00:41:37;0.87;;;0.87;;
4486;SDS011;2256;48.740;9.106;2023-01-13T00:44:22;5.13;;;1.10;;
4486;SDS011;2256;48.740;9.106;2023-01-13T00:46:50;1.20;;;0.80;;
4486;SDS011;2256;48.740;9.106;2023-01-13T00:49:17;3.07;;;1.17;;
4486;SDS011;2256;48.740;9.106;2023-01-13T00:51:44;2.93;;;1.30;;
4486;SDS011;2256;48.740;9.106;2023-01-13T00:54:11;3.07;;;1.30;;
4486;SDS011;2256;48.740;9.106;2023-01-13T00:56:37;2.17;;;0.93;;
4486;SDS011;2256;48.740;9.106;2023-01-13T00:59:04;7.33;;;1.10;;
4486;SDS011;2256;48.740;9.106;2023-01-13T01:01:31;4.07;;;1.03;;
4486;SDS011;2256;48.740;9.106;2023-01-13T01:03:59;8.90;;;1.10;;
4486;SDS011;2256;48.740;9.106;2023-01-13T01:06:26;2.27;;;1.27;;
4486;SDS011;2256;48.740;9.106;2023-01-13T01:08:53;3.90;;;1.23;;
4486;SDS011;2256;48.740;9.106;2023-01-13T01:11:22;2.13;;;1.10;;
4486;SDS011;2256;48.740;9.106;2023-01-13T01:13:50;6.90;;;1.03;;
4486;SDS011;2256;48.740;9.106;2023-01-13T01:16:19;3.10;;;0.90;;
4486;SDS011;2256;48.740;9.106;2023-01-13T01:18:47;1.97;;;1.07;;
4486;SDS011;2256;48.740;9.106;2023-01-13T01:21:17;2.10;;;1.10;;
4486;SDS011;2256;48.740;9.106;2023-01-13T01:23:44;2.70;;;1.50;;
4486;SDS011;2256;48.740;9.106;2023-01-13T01:26:12;4.33;;;1.10;;
4486;SDS011;2256;48.740;9.106;2023-01-13T01:28:40;6.63;;;1.07;;
4486;SDS011;2256;48.740;9.106;2023-01-13T01:31:08;2.50;;;1.00;;
4486;SDS011;2256;48.740;9.106;2023-01-13T01:33:36;1.10;;;1.00;;
4486;SDS011;2256;48.740;9.106;2023-01-13T01:36:05;2.20;;;1.00;;
4486;SDS011;2256;48.740;9.106;2023-01-13T01:38:35;2.77;;;1.07;;
4486;SDS011;2256;48.740;9.106;2023-01-13T01:41:02;1.33;;;1.10;;
4486;SDS011;2256;48.740;9.106;2023-01-13T01:46:26;1.97;;;1.10;;
4486;SDS011;2256;48.740;9.106;2023-01-13T01:48:54;1.60;;;1.10;;
4486;SDS011;2256;48.740;9.106;2023-01-13T01:51:24;3.17;;;1.17;;
4486;SDS011;2256;48.740;9.106;2023-01-13T01:53:55;1.00;;;0.90;;
4486;SDS011;2256;48.740;9.106;2023-01-13T01:56:24;4.30;;;1.00;;
4486;SDS011;2256;48.740;9.106;2023-01-13T01:58:51;1.53;;;0.97;;
4486;SDS011;2256;48.740;9.106;2023-01-13T02:01:19;2.70;;;1.00;;
4486;SDS011;2256;48.740;9.106;2023-01-13T02:03:49;1.33;;;0.90;;
4486;SDS011;2256;48.740;9.106;2023-01-13T02:06:20;3.47;;;1.00;;
4486;SDS011;2256;48.740;9.106;2023-01-13T02:08:47;3.17;;;1.07;;
4486;SDS011;2256;48.740;9.106;2023-01-13T02:11:28;1.70;;;1.00;;
4486;SDS011;2256;48.740;9.106;2023-01-13T02:14:14;1.30;;;1.10;;
4486;SDS011;2256;48.740;9.106;2023-01-13T02:16:44;2.30;;;1.20;;
4486;SDS011;2256;48.740;9.106;2023-01-13T02:22:28;1.57;;;1.07;;
4486;SDS011;2256;48.740;9.106;2023-01-13T02:25:20;4.70;;;1.00;;
4486;SDS011;2256;48.740;9.106;2023-01-13T02:28:20;4.53;;;1.00;;
4486;SDS011;2256;48.740;9.106;2023-01-13T02:31:02;1.93;;;1.27;;
4486;SDS011;2256;48.740;9.106;2023-01-13T02:33:59;5.73;;;1.47;;
4486;SDS011;2256;48.740;9.106;2023-01-13T02:36:33;3.27;;;1.17;;
4486;SDS011;2256;48.740;9.106;2023-01-13T02:39:10;2.90;;;1.03;;
4486;SDS011;2256;48.740;9.106;2023-01-13T02:41:41;1.40;;;1.20;;
4486;SDS011;2256;48.740;9.106;2023-01-13T02:44:31;11.13;;;1.30;;
4486;SDS011;2256;48.740;9.106;2023-01-13T02:47:05;3.23;;;1.00;;
4486;SDS011;2256;48.740;9.106;2023-01-13T02:49:40;2.30;;;0.97;;
4486;SDS011;2256;48.740;9.106;2023-01-13T02:52:11;10.33;;;1.50;;
4486;SDS011;2256;48.740;9.106;2023-01-13T02:54:43;1.13;;;0.97;;
4486;SDS011;2256;48.740;9.106;2023-01-13T02:57:13;2.27;;;1.47;;
4486;SDS011;2256;48.740;9.106;2023-01-13T02:59:43;1.37;;;1.10;;
4486;SDS011;2256;48.740;9.106;2023-01-13T03:02:13;2.40;;;1.03;;
4486;SDS011;2256;48.740;9.106;2023-01-13T03:04:45;1.60;;;0.93;;
4486;SDS011;2256;48.740;9.106;2023-01-13T03:10:10;0.90;;;0.90;;
4486;SDS011;2256;48.740;9.106;2023-01-13T03:12:49;2.37;;;1.10;;
4486;SDS011;2256;48.740;9.106;2023-01-13T03:15:28;1.10;;;1.00;;
4486;SDS011;2256;48.740;9.106;2023-01-13T03:18:07;1.10;;;0.80;;
4486;SDS011;2256;48.740;9.106;2023-01-13T03:20:43;5.27;;;0.87;;
4486;SDS011;2256;48.740;9.106;2023-01-13T03:23:18;2.73;;;1.10;;
4486;SDS011;2256;48.740;9.106;2023-01-13T03:25:52;1.63;;;1.10;;
4486;SDS011;2256;48.740;9.106;2023-01-13T03:28:26;1.30;;;0.93;;
4486;SDS011;2256;48.740;9.106;2023-01-13T03:30:58;3.53;;;0.97;;
4486;SDS011;2256;48.740;9.106;2023-01-13T03:33:32;1.03;;;0.90;;
4486;SDS011;2256;48.740;9.106;2023-01-13T03:36:02;1.67;;;1.10;;
4486;SDS011;2256;48.740;9.106;2023-01-13T03:38:34;7.80;;;1.17;;
4486;SDS011;2256;48.740;9.106;2023-01-13T03:41:04;1.20;;;0.90;;
4486;SDS011;2256;48.740;9.106;2023-01-13T03:43:35;1.37;;;1.17;;
4486;SDS011;2256;48.740;9.106;2023-01-13T03:46:23;0.90;;;0.80;;
4486;SDS011;2256;48.740;9.106;2023-01-13T03:48:55;1.53;;;1.00;;
4486;SDS011;2256;48.740;9.106;2023-01-13T03:51:25;3.57;;;1.00;;
4486;SDS011;2256;48.740;9.106;2023-01-13T03:53:57;0.90;;;0.90;;
4486;SDS011;2256;48.740;9.106;2023-01-13T03:56:26;2.00;;;0.90;;
4486;SDS011;2256;48.740;9.106;2023-01-13T03:58:59;9.03;;;1.00;;
4486;SDS011;2256;48.740;9.106;2023-01-13T04:01:31;4.73;;;1.00;;
4486;SDS011;2256;48.740;9.106;2023-01-13T04:04:02;2.70;;;1.00;;
4486;SDS011;2256;48.740;9.106;2023-01-13T04:06:34;8.00;;;1.00;;
4486;SDS011;2256;48.740;9.106;2023-01-13T04:09:06;1.07;;;0.97;;
4486;SDS011;2256;48.740;9.106;2023-01-13T04:11:38;0.80;;;0.80;;
4486;SDS011;2256;48.740;9.106;2023-01-13T04:14:09;2.53;;;1.13;;
4486;SDS011;2256;48.740;9.106;2023-01-13T04:16:40;2.10;;;1.03;;
4486;SDS011;2256;48.740;9.106;2023-01-13T04:19:08;2.03;;;0.90;;
4486;SDS011;2256;48.740;9.106;2023-01-13T04:21:35;4.67;;;1.17;;
4486;SDS011;2256;48.740;9.106;2023-01-13T04:24:02;2.10;;;0.83;;
4486;SDS011;2256;48.740;9.106;2023-01-13T04:26:29;1.43;;;0.93;;
4486;SDS011;2256;48.740;9.106;2023-01-13T04:28:56;2.00;;;1.20;;
4486;SDS011;2256;48.740;9.106;2023-01-13T04:31:22;5.90;;;1.20;;
4486;SDS011;2256;48.740;9.106;2023-01-13T04:33:49;6.67;;;0.97;;
4486;SDS011;2256;48.740;9.106;2023-01-13T04:36:17;0.80;;;0.80;;
4486;SDS011;2256;48.740;9.106;2023-01-13T04:38:49;2.43;;;0.80;;
4486;SDS011;2256;48.740;9.106;2023-01-13T04:41:15;3.37;;;1.07;;
4486;SDS011;2256;48.740;9.106;2023-01-13T04:43:42;1.23;;;0.80;;
4486;SDS011;2256;48.740;9.106;2023-01-13T04:46:09;1.53;;;0.93;;
4486;SDS011;2256;48.740;9.106;2023-01-13T04:48:36;9.30;;;1.10;;
4486;SDS011;2256;48.740;9.106;2023-01-13T04:51:02;3.53;;;0.93;;
4486;SDS011;2256;48.740;9.106;2023-01-13T04:53:31;1.33;;;1.00;;
4486;SDS011;2256;48.740;9.106;2023-01-13T04:55:57;2.40;;;1.10;;
4486;SDS011;2256;48.740;9.106;2023-01-13T04:58:24;2.10;;;0.80;;
4486;SDS011;2256;48.740;9.106;2023-01-13T05:00:51;1.00;;;0.83;;
4486;SDS011;2256;48.740;9.106;2023-01-13T05:03:19;2.40;;;0.80;;
4486;SDS011;2256;48.740;9.106;2023-01-13T05:05:49;1.00;;;0.90;;
4486;SDS011;2256;48.740;9.106;2023-01-13T05:08:16;1.30;;;0.83;;
4486;SDS011;2256;48.740;9.106;2023-01-13T05:10:45;0.70;;;0.70;;
4486;SDS011;2256;48.740;9.106;2023-01-13T05:13:12;1.13;;;0.90;;
4486;SDS011;2256;48.740;9.106;2023-01-13T05:15:56;2.13;;;0.93;;
4486;SDS011;2256;48.740;9.106;2023-01-13T05:18:43;2.50;;;1.00;;
4486;SDS011;2256;48.740;9.106;2023-01-13T05:21:10;4.70;;;1.07;;
4486;SDS011;2256;48.740;9.106;2023-01-13T05:23:51;4.50;;;1.00;;
4486;SDS011;2256;48.740;9.106;2023-01-13T05:26:37;1.93;;;1.00;;
4486;SDS011;2256;48.740;9.106;2023-01-13T05:29:03;0.70;;;0.70;;
4486;SDS011;2256;48.740;9.106;2023-01-13T05:31:30;2.07;;;1.00;;
4486;SDS011;2256;48.740;9.106;2023-01-13T05:33:57;2.57;;;1.10;;
4486;SDS011;2256;48.740;9.106;2023-01-13T05:36:24;5.13;;;0.90;;
4486;SDS011;2256;48.740;9.106;2023-01-13T05:38:51;0.80;;;0.80;;
4486;SDS011;2256;48.740;9.106;2023-01-13T05:41:17;1.27;;;1.03;;
4486;SDS011;2256;48.740;9.106;2023-01-13T05:44:03;2.30;;;1.03;;
4486;SDS011;2256;48.740;9.106;2023-01-13T05:46:30;1.13;;;0.80;;
4486;SDS011;2256;48.740;9.106;2023-01-13T05:48:57;1.63;;;0.90;;
4486;SDS011;2256;48.740;9.106;2023-01-13T05:51:25;1.90;;;0.83;;
4486;SDS011;2256;48.740;9.106;2023-01-13T05:53:52;1.10;;;1.00;;
4486;SDS011;2256;48.740;9.106;2023-01-13T05:56:19;1.23;;;1.00;;
4486;SDS011;2256;48.740;9.106;2023-01-13T05:58:47;8.50;;;1.20;;
4486;SDS011;2256;48.740;9.106;2023-01-13T06:01:15;1.73;;;0.97;;
4486;SDS011;2256;48.740;9.106;2023-01-13T06:03:42;6.30;;;0.80;;
4486;SDS011;2256;48.740;9.106;2023-01-13T06:06:12;4.93;;;0.97;;
4486;SDS011;2256;48.740;9.106;2023-01-13T06:08:40;3.30;;;1.00;;
4486;SDS011;2256;48.740;9.106;2023-01-13T06:11:07;0.70;;;0.70;;
4486;SDS011;2256;48.740;9.106;2023-01-13T06:13:34;1.77;;;0.93;;
4486;SDS011;2256;48.740;9.106;2023-01-13T06:16:01;1.13;;;0.83;;
4486;SDS011;2256;48.740;9.106;2023-01-13T06:18:29;0.77;;;0.73;;
4486;SDS011;2256;48.740;9.106;2023-01-13T06:20:56;0.80;;;0.80;;
4486;SDS011;2256;48.740;9.106;2023-01-13T06:23:23;1.10;;;0.80;;
4486;SDS011;2256;48.740;9.106;2023-01-13T06:25:51;1.73;;;0.80;;
4486;SDS011;2256;48.740;9.106;2023-01-13T06:28:25;3.07;;;0.90;;
4486;SDS011;2256;48.740;9.106;2023-01-13T06:30:53;1.37;;;0.80;;
4486;SDS011;2256;48.740;9.106;2023-01-13T06:33:25;1.20;;;0.80;;
4486;SDS011;2256;48.740;9.106;2023-01-13T06:36:01;2.70;;;0.90;;
4486;SDS011;2256;48.740;9.106;2023-01-13T06:38:32;0.80;;;0.80;;
4486;SDS011;2256;48.740;9.106;2023-01-13T06:41:02;1.27;;;0.90;;
4486;SDS011;2256;48.740;9.106;2023-01-13T06:43:31;1.00;;;1.00;;
4486;SDS011;2256;48.740;9.106;2023-01-13T06:45:57;0.73;;;0.73;;
4486;SDS011;2256;48.740;9.106;2023-01-13T06:48:27;0.87;;;0.80;;
4486;SDS011;2256;48.740;9.106;2023-01-13T06:50:58;1.00;;;0.83;;
4486;SDS011;2256;48.740;9.106;2023-01-13T06:53:24;1.43;;;1.00;;
4486;SDS011;2256;48.740;9.106;2023-01-13T06:55:51;9.03;;;0.80;;
4486;SDS011;2256;48.740;9.106;2023-01-13T06:58:18;1.07;;;0.80;;
4486;SDS011;2256;48.740;9.106;2023-01-13T07:00:45;0.70;;;0.70;;
4486;SDS011;2256;48.740;9.106;2023-01-13T07:03:14;2.00;;;0.90;;
4486;SDS011;2256;48.740;9.106;2023-01-13T07:05:49;0.93;;;0.83;;
4486;SDS011;2256;48.740;9.106;2023-01-13T07:08:17;3.17;;;0.90;;
4486;SDS011;2256;48.740;9.106;2023-01-13T07:10:44;0.90;;;0.90;;
4486;SDS011;2256;48.740;9.106;2023-01-13T07:13:11;1.10;;;0.80;;
4486;SDS011;2256;48.740;9.106;2023-01-13T07:15:56;0.80;;;0.80;;
4486;SDS011;2256;48.740;9.106;2023-01-13T07:18:24;1.33;;;0.70;;
4486;SDS011;2256;48.740;9.106;2023-01-13T07:20:55;1.80;;;0.90;;
4486;SDS011;2256;48.740;9.106;2023-01-13T07:23:23;7.30;;;1.00;;
4486;SDS011;2256;48.740;9.106;2023-01-13T07:25:53;0.70;;;0.70;;
4486;SDS011;2256;48.740;9.106;2023-01-13T07:28:21;0.80;;;0.80;;
4486;SDS011;2256;48.740;9.106;2023-01-13T07:30:47;0.70;;;0.70;;
4486;SDS011;2256;48.740;9.106;2023-01-13T07:33:14;1.37;;;1.23;;
4486;SDS011;2256;48.740;9.106;2023-01-13T07:35:42;1.00;;;0.83;;
4486;SDS011;2256;48.740;9.106;2023-01-13T07:38:10;0.80;;;0.80;;
4486;SDS011;2256;48.740;9.106;2023-01-13T07:40:38;2.20;;;0.90;;
4486;SDS011;2256;48.740;9.106;2023-01-13T07:43:05;0.80;;;0.70;;
4486;SDS011;2256;48.740;9.106;2023-01-13T07:45:53;0.80;;;0.80;;
4486;SDS011;2256;48.740;9.106;2023-01-13T07:48:21;2.70;;;0.80;;
4486;SDS011;2256;48.740;9.106;2023-01-13T07:50:47;0.77;;;0.77;;
4486;SDS011;2256;48.740;9.106;2023-01-13T07:53:15;0.93;;;0.80;;
4486;SDS011;2256;48.740;9.106;2023-01-13T07:55:43;0.70;;;0.70;;
4486;SDS011;2256;48.740;9.106;2023-01-13T07:58:10;1.63;;;0.70;;
4486;SDS011;2256;48.740;9.106;2023-01-13T08:00:37;3.60;;;0.70;;
4486;SDS011;2256;48.740;9.106;2023-01-13T08:03:04;7.50;;;0.90;;
4486;SDS011;2256;48.740;9.106;2023-01-13T08:05:31;7.17;;;0.90;;
4486;SDS011;2256;48.740;9.106;2023-01-13T08:08:00;0.70;;;0.70;;
4486;SDS011;2256;48.740;9.106;2023-01-13T08:10:28;0.60;;;0.60;;
4486;SDS011;2256;48.740;9.106;2023-01-13T08:12:55;0.83;;;0.83;;
4486;SDS011;2256;48.740;9.106;2023-01-13T08:15:39;0.80;;;0.70;;
4486;SDS011;2256;48.740;9.106;2023-01-13T08:18:06;0.63;;;0.63;;
4486;SDS011;2256;48.740;9.106;2023-01-13T08:20:32;0.80;;;0.80;;
4486;SDS011;2256;48.740;9.106;2023-01-13T08:22:59;1.07;;;0.87;;
4486;SDS011;2256;48.740;9.106;2023-01-13T08:25:27;1.33;;;0.80;;
4486;SDS011;2256;48.740;9.106;2023-01-13T08:27:55;0.70;;;0.70;;
4486;SDS011;2256;48.740;9.106;2023-01-13T08:30:24;3.50;;;2.33;;
4486;SDS011;2256;48.740;9.106;2023-01-13T08:32:51;0.70;;;0.70;;
4486;SDS011;2256;48.740;9.106;2023-01-13T08:35:25;1.10;;;0.80;;
4486;SDS011;2256;48.740;9.106;2023-01-13T08:37:52;1.73;;;0.80;;
4486;SDS011;2256;48.740;9.106;2023-01-13T08:40:19;2.10;;;1.00;;
4486;SDS011;2256;48.740;9.106;2023-01-13T08:42:47;2.20;;;0.93;;
4486;SDS011;2256;48.740;9.106;2023-01-13T08:45:14;1.00;;;0.90;;
4486;SDS011;2256;48.740;9.106;2023-01-13T08:47:41;2.40;;;1.00;;
4486;SDS011;2256;48.740;9.106;2023-01-13T08:50:09;2.40;;;0.80;;
4486;SDS011;2256;48.740;9.106;2023-01-13T08:52:36;2.27;;;1.00;;
4486;SDS011;2256;48.740;9.106;2023-01-13T08:55:03;0.80;;;0.80;;
4486;SDS011;2256;48.740;9.106;2023-01-13T08:57:30;2.20;;;0.80;;
4486;SDS011;2256;48.740;9.106;2023-01-13T08:59:59;1.10;;;1.00;;
4486;SDS011;2256;48.740;9.106;2023-01-13T09:02:26;0.70;;;0.70;;
4486;SDS011;2256;48.740;9.106;2023-01-13T09:04:53;1.47;;;0.73;;
4486;SDS011;2256;48.740;9.106;2023-01-13T09:07:20;2.60;;;1.00;;
4486;SDS011;2256;48.740;9.106;2023-01-13T09:09:47;1.57;;;0.90;;
4486;SDS011;2256;48.740;9.106;2023-01-13T09:12:14;1.33;;;1.00;;
4486;SDS011;2256;48.740;9.106;2023-01-13T09:15:01;2.07;;;0.90;;
4486;SDS011;2256;48.740;9.106;2023-01-13T09:17:28;1.00;;;0.90;;
4486;SDS011;2256;48.740;9.106;2023-01-13T09:19:55;3.23;;;0.90;;
4486;SDS011;2256;48.740;9.106;2023-01-13T09:22:21;0.97;;;0.87;;
4486;SDS011;2256;48.740;9.106;2023-01-13T09:24:51;0.70;;;0.70;;
4486;SDS011;2256;48.740;9.106;2023-01-13T09:27:18;0.73;;;0.73;;
4486;SDS011;2256;48.740;9.106;2023-01-13T09:29:45;1.30;;;0.70;;
4486;SDS011;2256;48.740;9.106;2023-01-13T09:32:14;10.13;;;0.80;;
4486;SDS011;2256;48.740;9.106;2023-01-13T09:34:41;1.47;;;0.80;;
4486;SDS011;2256;48.740;9.106;2023-01-13T09:37:25;3.33;;;1.03;;
4486;SDS011;2256;48.740;9.106;2023-01-13T09:39:52;2.63;;;0.90;;
4486;SDS011;2256;48.740;9.106;2023-01-13T09:42:23;1.80;;;0.80;;
4486;SDS011;2256;48.740;9.106;2023-01-13T09:45:13;1.10;;;1.00;;
4486;SDS011;2256;48.740;9.106;2023-01-13T09:47:44;0.87;;;0.70;;
4486;SDS011;2256;48.740;9.106;2023-01-13T09:50:21;0.87;;;0.70;;
4486;SDS011;2256;48.740;9.106;2023-01-13T09:53:05;0.70;;;0.70;;
4486;SDS011;2256;48.740;9.106;2023-01-13T09:55:35;0.80;;;0.80;;
4486;SDS011;2256;48.740;9.106;2023-01-13T09:58:06;2.10;;;1.00;;
4486;SDS011;2256;48.740;9.106;2023-01-13T10:00:37;1.87;;;0.77;;
4486;SDS011;2256;48.740;9.106;2023-01-13T10:03:19;1.43;;;0.77;;
4486;SDS011;2256;48.740;9.106;2023-01-13T10:05:49;2.70;;;0.70;;
4486;SDS011;2256;48.740;9.106;2023-01-13T10:08:22;0.60;;;0.60;;
4486;SDS011;2256;48.740;9.106;2023-01-13T10:10:53;0.60;;;0.60;;
4486;SDS011;2256;48.740;9.106;2023-01-13T10:13:21;1.43;;;0.70;;
4486;SDS011;2256;48.740;9.106;2023-01-13T10:16:01;2.47;;;0.80;;
4486;SDS011;2256;48.740;9.106;2023-01-13T10:18:52;1.10;;;0.80;;
4486;SDS011;2256;48.740;9.106;2023-01-13T10:21:40;1.63;;;0.80;;
4486;SDS011;2256;48.740;9.106;2023-01-13T10:24:34;3.13;;;0.80;;
4486;SDS011;2256;48.740;9.106;2023-01-13T10:27:16;5.30;;;0.87;;
4486;SDS011;2256;48.740;9.106;2023-01-13T10:29:49;1.17;;;0.80;;
4486;SDS011;2256;48.740;9.106;2023-01-13T10:32:16;7.20;;;0.80;;
4486;SDS011;2256;48.740;9.106;2023-01-13T10:34:48;0.60;;;0.60;;
4486;SDS011;2256;48.740;9.106;2023-01-13T10:37:19;0.93;;;0.70;;
4486;SDS011;2256;48.740;9.106;2023-01-13T10:39:47;2.60;;;0.73;;
4486;SDS011;2256;48.740;9.106;2023-01-13T10:42:16;0.87;;;0.77;;
4486;SDS011;2256;48.740;9.106;2023-01-13T10:44:49;4.23;;;1.00;;
4486;SDS011;2256;48.740;9.106;2023-01-13T10:47:18;1.87;;;0.73;;
4486;SDS011;2256;48.740;9.106;2023-01-13T10:49:59;1.00;;;0.70;;
4486;SDS011;2256;48.740;9.106;2023-01-13T10:52:29;5.23;;;0.83;;
4486;SDS011;2256;48.740;9.106;2023-01-13T10:54:57;1.10;;;0.83;;
4486;SDS011;2256;48.740;9.106;2023-01-13T10:57:25;0.97;;;0.70;;
4486;SDS011;2256;48.740;9.106;2023-01-13T10:59:53;5.77;;;0.90;;
4486;SDS011;2256;48.740;9.106;2023-01-13T11:02:24;1.10;;;0.80;;
4486;SDS011;2256;48.740;9.106;2023-01-13T11:04:56;2.40;;;0.80;;
4486;SDS011;2256;48.740;9.106;2023-01-13T11:07:34;2.10;;;1.07;;
4486;SDS011;2256;48.740;9.106;2023-01-13T11:10:15;6.07;;;0.70;;
4486;SDS011;2256;48.740;9.106;2023-01-13T11:12:47;0.70;;;0.70;;
4486;SDS011;2256;48.740;9.106;2023-01-13T11:15:19;1.47;;;0.90;;
4486;SDS011;2256;48.740;9.106;2023-01-13T11:17:50;0.70;;;0.70;;
4486;SDS011;2256;48.740;9.106;2023-01-13T11:20:28;1.63;;;0.80;;
4486;SDS011;2256;48.740;9.106;2023-01-13T11:23:01;1.43;;;0.90;;
4486;SDS011;2256;48.740;9.106;2023-01-13T11:25:33;2.47;;;0.90;;
4486;SDS011;2256;48.740;9.106;2023-01-13T11:28:12;2.73;;;1.00;;
4486;SDS011;2256;48.740;9.106;2023-01-13T11:30:46;4.40;;;0.80;;
4486;SDS011;2256;48.740;9.106;2023-01-13T11:33:25;4.30;;;1.00;;
4486;SDS011;2256;48.740;9.106;2023-01-13T11:36:03;4.80;;;0.90;;
4486;SDS011;2256;48.740;9.106;2023-01-13T11:38:36;2.10;;;0.80;;
4486;SDS011;2256;48.740;9.106;2023-01-13T11:41:07;4.73;;;0.80;;
4486;SDS011;2256;48.740;9.106;2023-01-13T11:43:44;2.17;;;1.00;;
4486;SDS011;2256;48.740;9.106;2023-01-13T11:46:16;0.70;;;0.70;;
4486;SDS011;2256;48.740;9.106;2023-01-13T11:48:44;1.43;;;1.00;;
4486;SDS011;2256;48.740;9.106;2023-01-13T11:51:16;7.77;;;1.80;;
4486;SDS011;2256;48.740;9.106;2023-01-13T11:53:55;1.67;;;0.87;;
4486;SDS011;2256;48.740;9.106;2023-01-13T11:56:32;2.37;;;0.93;;
4486;SDS011;2256;48.740;9.106;2023-01-13T12:02:13;5.63;;;0.97;;
4486;SDS011;2256;48.740;9.106;2023-01-13T12:04:51;1.43;;;1.00;;
4486;SDS011;2256;48.740;9.106;2023-01-13T12:07:33;1.73;;;0.90;;
4486;SDS011;2256;48.740;9.106;2023-01-13T12:10:07;2.53;;;1.33;;
4486;SDS011;2256;48.740;9.106;2023-01-13T12:12:42;2.58;;;0.93;;
4486;SDS011;2256;48.740;9.106;2023-01-13T12:15:19;5.67;;;1.20;;
4486;SDS011;2256;48.740;9.106;2023-01-13T12:18:26;4.68;;;1.02;;
4486;SDS011;2256;48.740;9.106;2023-01-13T12:21:13;3.20;;;1.10;;
4486;SDS011;2256;48.740;9.106;2023-01-13T12:23:47;2.37;;;1.40;;
4486;SDS011;2256;48.740;9.106;2023-01-13T12:26:23;3.73;;;1.00;;
4486;SDS011;2256;48.740;9.106;2023-01-13T12:28:52;1.53;;;1.00;;
4486;SDS011;2256;48.740;9.106;2023-01-13T12:31:22;5.27;;;1.60;;
4486;SDS011;2256;48.740;9.106;2023-01-13T12:33:59;1.20;;;1.07;;
4486;SDS011;2256;48.740;9.106;2023-01-13T12:36:40;5.57;;;1.17;;
4486;SDS011;2256;48.740;9.106;2023-01-13T12:39:19;5.30;;;1.20;;
4486;SDS011;2256;48.740;9.106;2023-01-13T12:41:54;2.60;;;1.10;;
4486;SDS011;2256;48.740;9.106;2023-01-13T12:47:48;1.23;;;1.07;;
4486;SDS011;2256;48.740;9.106;2023-01-13T13:08:04;12.90;;;2.03;;
4486;SDS011;2256;48.740;9.106;2023-01-13T13:10:39;10.33;;;1.90;;
4486;SDS011;2256;48.740;9.106;2023-01-13T13:13:21;7.43;;;1.73;;
4486;SDS011;2256;48.740;9.106;2023-01-13T13:25:21;3.70;;;1.17;;
4486;SDS011;2256;48.740;9.106;2023-01-13T13:30:52;8.10;;;2.10;;
4486;SDS011;2256;48.740;9.106;2023-01-13T13:33:42;15.70;;;1.50;;
4486;SDS011;2256;48.740;9.106;2023-01-13T13:36:21;8.13;;;1.23;;
4486;SDS011;2256;48.740;9.106;2023-01-13T13:39:09;6.10;;;1.73;;
4486;SDS011;2256;48.740;9.106;2023-01-13T13:42:03;7.90;;;1.63;;
4486;SDS011;2256;48.740;9.106;2023-01-13T13:44:57;3.27;;;1.30;;
4486;SDS011;2256;48.740;9.106;2023-01-13T13:47:44;9.33;;;1.50;;
4486;SDS011;2256;48.740;9.106;2023-01-13T13:50:12;2.97;;;1.37;;
4486;SDS011;2256;48.740;9.106;2023-01-13T13:52:40;6.77;;;1.53;;
4486;SDS011;2256;48.740;9.106;2023-01-13T13:55:16;5.40;;;1.60;;
4486;SDS011;2256;48.740;9.106;2023-01-13T13:57:44;3.60;;;1.17;;
4486;SDS011;2256;48.740;9.106;2023-01-13T14:00:21;6.80;;;1.60;;
4486;SDS011;2256;48.740;9.106;2023-01-13T14:02:51;8.87;;;1.70;;
4486;SDS011;2256;48.740;9.106;2023-01-13T14:05:23;10.13;;;1.50;;
4486;SDS011;2256;48.740;9.106;2023-01-13T14:07:51;4.50;;;1.53;;
4486;SDS011;2256;48.740;9.106;2023-01-13T14:10:27;7.10;;;1.35;;
4486;SDS011;2256;48.740;9.106;2023-01-13T14:12:55;4.20;;;1.40;;
4486;SDS011;2256;48.740;9.106;2023-01-13T14:15:26;3.53;;;1.40;;
4486;SDS011;2256;48.740;9.106;2023-01-13T14:17:58;4.83;;;1.43;;
4486;SDS011;2256;48.740;9.106;2023-01-13T14:20:27;3.57;;;1.30;;
4486;SDS011;2256;48.740;9.106;2023-01-13T14:22:54;3.10;;;1.10;;
4486;SDS011;2256;48.740;9.106;2023-01-13T14:25:26;6.07;;;1.10;;
4486;SDS011;2256;48.740;9.106;2023-01-13T14:28:13;7.40;;;1.27;;
4486;SDS011;2256;48.740;9.106;2023-01-13T14:30:47;13.47;;;1.90;;
4486;SDS011;2256;48.740;9.106;2023-01-13T14:33:16;11.90;;;1.90;;
4486;SDS011;2256;48.740;9.106;2023-01-13T14:36:11;3.60;;;1.40;;
4486;SDS011;2256;48.740;9.106;2023-01-13T14:38:41;4.23;;;0.97;;
4486;SDS011;2256;48.740;9.106;2023-01-13T14:41:10;2.28;;;1.10;;
4486;SDS011;2256;48.740;9.106;2023-01-13T14:43:41;3.80;;;1.20;;
4486;SDS011;2256;48.740;9.106;2023-01-13T14:46:10;2.55;;;0.80;;
4486;SDS011;2256;48.740;9.106;2023-01-13T14:48:38;4.68;;;1.00;;
4486;SDS011;2256;48.740;9.106;2023-01-13T14:51:11;2.53;;;1.15;;
4486;SDS011;2256;48.740;9.106;2023-01-13T14:53:46;1.52;;;1.27;;
4486;SDS011;2256;48.740;9.106;2023-01-13T15:05:31;3.80;;;1.55;;
4486;SDS011;2256;48.740;9.106;2023-01-13T15:08:01;6.32;;;1.48;;
4486;SDS011;2256;48.740;9.106;2023-01-13T15:10:33;4.65;;;1.20;;
4486;SDS011;2256;48.740;9.106;2023-01-13T15:13:03;7.05;;;1.58;;
4486;SDS011;2256;48.740;9.106;2023-01-13T15:15:31;2.25;;;1.30;;
4486;SDS011;2256;48.740;9.106;2023-01-13T15:18:00;5.30;;;1.75;;
4486;SDS011;2256;48.740;9.106;2023-01-13T15:20:32;1.75;;;1.40;;
4486;SDS011;2256;48.740;9.106;2023-01-13T15:22:59;7.75;;;1.58;;
4486;SDS011;2256;48.740;9.106;2023-01-13T15:25:30;1.30;;;1.15;;
4486;SDS011;2256;48.740;9.106;2023-01-13T15:27:57;5.28;;;1.60;;
4486;SDS011;2256;48.740;9.106;2023-01-13T15:30:24;4.80;;;1.55;;
4486;SDS011;2256;48.740;9.106;2023-01-13T15:32:52;5.82;;;1.40;;
4486;SDS011;2256;48.740;9.106;2023-01-13T15:35:21;2.67;;;1.20;;
4486;SDS011;2256;48.740;9.106;2023-01-13T15:37:51;4.30;;;1.20;;
4486;SDS011;2256;48.740;9.106;2023-01-13T15:40:20;3.00;;;1.20;;
4486;SDS011;2256;48.740;9.106;2023-01-13T15:42:48;6.57;;;1.45;;
4486;SDS011;2256;48.740;9.106;2023-01-13T15:45:33;2.53;;;1.15;;
4486;SDS011;2256;48.740;9.106;2023-01-13T15:48:19;4.53;;;1.15;;
4486;SDS011;2256;48.740;9.106;2023-01-13T15:50:47;4.90;;;1.30;;
4486;SDS011;2256;48.740;9.106;2023-01-13T15:53:15;3.03;;;1.27;;
4486;SDS011;2256;48.740;9.106;2023-01-13T15:55:43;7.07;;;1.35;;
4486;SDS011;2256;48.740;9.106;2023-01-13T15:58:12;2.10;;;1.20;;
4486;SDS011;2256;48.740;9.106;2023-01-13T16:00:39;9.35;;;1.55;;
4486;SDS011;2256;48.740;9.106;2023-01-13T16:03:08;5.45;;;1.75;;
4486;SDS011;2256;48.740;9.106;2023-01-13T16:05:37;7.85;;;1.52;;
4486;SDS011;2256;48.740;9.106;2023-01-13T16:08:03;8.27;;;1.52;;
4486;SDS011;2256;48.740;9.106;2023-01-13T16:10:32;3.00;;;1.20;;
4486;SDS011;2256;48.740;9.106;2023-01-13T16:12:58;3.08;;;1.05;;
4486;SDS011;2256;48.740;9.106;2023-01-13T16:15:25;4.93;;;1.55;;
4486;SDS011;2256;48.740;9.106;2023-01-13T16:17:53;9.07;;;1.70;;
4486;SDS011;2256;48.740;9.106;2023-01-13T16:20:23;9.25;;;1.75;;
4486;SDS011;2256;48.740;9.106;2023-01-13T16:22:50;4.57;;;1.60;;
4486;SDS011;2256;48.740;9.106;2023-01-13T16:25:17;5.78;;;1.50;;
4486;SDS011;2256;48.740;9.106;2023-01-13T16:27:47;5.70;;;1.80;;
4486;SDS011;2256;48.740;9.106;2023-01-13T16:30:19;4.43;;;1.50;;
4486;SDS011;2256;48.740;9.106;2023-01-13T16:32:48;4.82;;;1.45;;
4486;SDS011;2256;48.740;9.106;2023-01-13T16:35:15;10.68;;;1.80;;
4486;SDS011;2256;48.740;9.106;2023-01-13T16:37:43;10.05;;;1.83;;